createdAt,value
2023-05-05T00:01:46.789Z,98162.47
2023-05-05T00:04:49.860Z,98162.53
2023-05-05T00:07:54.394Z,98157.41
2023-05-05T00:10:57.732Z,98163.84
2023-05-05T00:14:01.089Z,98147.69
2023-05-05T00:17:04.388Z,98152.63
2023-05-05T00:20:12.492Z,98154.25
2023-05-05T00:23:17.183Z,98146.06
2023-05-05T00:26:21.230Z,98151.38
2023-05-05T00:29:26.815Z,98154.41
2023-05-05T00:32:29.931Z,98152.88
2023-05-05T00:35:33.135Z,98157.44
2023-05-05T00:38:38.077Z,98157.44
2023-05-05T00:41:42.460Z,98147.00
2023-05-05T00:44:45.998Z,98143.63
2023-05-05T00:47:51.201Z,98143.72
2023-05-05T00:50:54.581Z,98132.34
2023-05-05T00:53:59.381Z,98133.88
2023-05-05T00:57:03.095Z,98131.09
2023-05-05T01:00:09.830Z,98131.31
2023-05-05T01:03:18.487Z,98118.38
2023-05-05T01:06:46.149Z,98121.66
2023-05-05T01:10:11.002Z,98121.03
2023-05-05T01:13:28.802Z,98127.88
2023-05-05T01:16:35.371Z,98126.34
2023-05-05T01:20:03.727Z,98118.72
2023-05-05T01:23:09.535Z,98117.72
2023-05-05T01:26:25.736Z,98096.66
2023-05-05T01:29:41.673Z,98117.63
2023-05-05T01:32:51.315Z,98113.63
2023-05-05T01:35:59.055Z,98115.19
2023-05-05T01:39:04.188Z,98120.25
2023-05-05T01:42:13.769Z,98120.25
2023-05-05T01:45:21.144Z,98119.84
2023-05-05T01:48:26.884Z,98108.16
2023-05-05T01:51:31.031Z,98100.16
2023-05-05T01:54:35.540Z,98107.59
2023-05-05T01:57:42.449Z,98102.34
2023-05-05T02:00:46.672Z,98107.41
2023-05-05T02:03:52.851Z,98109.00
2023-05-05T02:06:58.730Z,98116.03
2023-05-05T02:10:03.562Z,98112.69
2023-05-05T02:13:07.143Z,98111.31
2023-05-05T02:16:11.581Z,98102.22
2023-05-05T02:19:17.068Z,98117.41
2023-05-05T02:22:20.316Z,98119.06
2023-05-05T02:25:27.264Z,98128.31
2023-05-05T02:28:36.337Z,98126.94
2023-05-05T02:31:43.427Z,98122.53
2023-05-05T02:34:51.392Z,98114.41
2023-05-05T02:38:02.516Z,98111.66
2023-05-05T02:41:14.576Z,98114.34
2023-05-05T02:44:21.181Z,98115.25
2023-05-05T02:47:30.186Z,98107.97
2023-05-05T02:50:35.035Z,98111.44
2023-05-05T02:53:48.977Z,98109.72
2023-05-05T02:56:54.327Z,98097.31
2023-05-05T03:00:05.993Z,98101.31
2023-05-05T03:03:17.744Z,98104.28
2023-05-05T03:06:28.343Z,98107.06
2023-05-05T03:09:37.811Z,98112.09
2023-05-05T03:12:47.022Z,98107.34
2023-05-05T03:15:59.594Z,98107.69
2023-05-05T03:19:04.507Z,98100.28
2023-05-05T03:22:10.354Z,98092.09
2023-05-05T03:25:17.638Z,98101.97
2023-05-05T03:28:21.191Z,98097.53
2023-05-05T03:34:45.186Z,98095.84
2023-05-05T03:37:48.691Z,98097.06
2023-05-05T03:40:53.889Z,98101.38
2023-05-05T03:44:00.026Z,98097.41
2023-05-05T03:47:03.742Z,98097.47
2023-05-05T03:50:13.093Z,98105.75
2023-05-05T03:53:16.893Z,98101.66
2023-05-05T03:56:20.558Z,98102.63
2023-05-05T03:59:23.666Z,98106.03
2023-05-05T04:02:27.182Z,98104.84
2023-05-05T04:05:31.775Z,98105.03
2023-05-05T04:08:35.303Z,98080.81
2023-05-05T04:11:38.634Z,98106.84
2023-05-05T04:14:41.924Z,98114.19
2023-05-05T04:17:47.658Z,98117.38
2023-05-05T04:20:52.516Z,98109.84
2023-05-05T04:23:56.495Z,98114.81
2023-05-05T04:26:59.719Z,98122.63
2023-05-05T04:30:05.747Z,98113.16
2023-05-05T04:33:10.762Z,98109.44
2023-05-05T04:36:15.405Z,98054.47
2023-05-05T04:39:18.988Z,98113.00
2023-05-05T04:42:22.343Z,98113.59
2023-05-05T04:45:26.228Z,98117.09
2023-05-05T04:48:29.797Z,98124.50
2023-05-05T04:51:34.360Z,98124.97
2023-05-05T04:54:37.714Z,98119.97
2023-05-05T04:57:40.922Z,98126.38
2023-05-05T05:00:44.525Z,98120.25
2023-05-05T05:03:49.756Z,98124.19
2023-05-05T05:06:55.734Z,98128.78
2023-05-05T05:10:00.602Z,98139.44
2023-05-05T05:13:03.904Z,98147.56
2023-05-05T05:16:07.933Z,98150.59
2023-05-05T05:19:11.715Z,98163.91
2023-05-05T05:22:16.332Z,98158.41
2023-05-05T05:25:20.338Z,98158.19
2023-05-05T05:28:24.936Z,98159.81
2023-05-05T05:31:34.287Z,98150.72
2023-05-05T05:34:37.773Z,98149.47
2023-05-05T05:37:44.108Z,98149.28
2023-05-05T05:40:49.438Z,98150.66
2023-05-05T05:43:53.117Z,98153.34
2023-05-05T05:46:56.469Z,98149.25
2023-05-05T05:49:59.936Z,98154.81
2023-05-05T05:53:05.371Z,98151.16
2023-05-05T05:56:09.832Z,98165.47
2023-05-05T05:59:13.607Z,98078.50
2023-05-05T06:02:19.114Z,98160.59
2023-05-05T06:05:23.121Z,98160.56
2023-05-05T06:08:29.136Z,98161.88
2023-05-05T06:11:34.925Z,98165.66
2023-05-05T06:14:38.059Z,98155.50
2023-05-05T06:17:41.504Z,98160.19
2023-05-05T06:24:31.952Z,98158.50
2023-05-05T06:28:33.507Z,98152.28
2023-05-05T06:31:42.607Z,98146.41
2023-05-05T06:35:33.644Z,98144.91
2023-05-05T06:39:06.580Z,98141.97
2023-05-05T06:42:57.996Z,98142.22
2023-05-05T06:46:59.444Z,98141.72
2023-05-05T06:50:14.454Z,98152.50
2023-05-05T06:54:31.626Z,98147.66
2023-05-05T06:57:50.417Z,98147.81
2023-05-05T07:05:55.573Z,98139.94
2023-05-05T07:09:55.138Z,98137.09
2023-05-05T07:13:26.650Z,98131.44
2023-05-05T07:16:38.941Z,98121.41
2023-05-05T07:19:58.780Z,98120.91
2023-05-05T07:23:48.527Z,98130.88
2023-05-05T07:27:31.738Z,98134.81
2023-05-05T07:30:58.821Z,98138.16
2023-05-05T07:34:22.465Z,98135.84
2023-05-05T07:37:42.935Z,98130.91
2023-05-05T07:41:02.193Z,98135.56
2023-05-05T07:45:19.014Z,98133.97
2023-05-05T07:49:31.082Z,98136.59
2023-05-05T08:00:41.074Z,98121.31
2023-05-05T08:03:53.831Z,98120.84
2023-05-05T08:08:06.667Z,98137.59
2023-05-05T08:11:29.786Z,98131.28
2023-05-05T08:18:47.454Z,98135.63
2023-05-05T08:26:02.138Z,98138.25
2023-05-05T08:30:06.083Z,98124.41
2023-05-05T08:34:04.395Z,98124.94
2023-05-05T08:37:25.633Z,98125.22
2023-05-05T08:40:56.008Z,98125.81
2023-05-05T08:45:17.469Z,98133.38
2023-05-05T09:05:37.628Z,98130.16
2023-05-05T09:09:06.245Z,98130.34
2023-05-05T09:13:12.379Z,98122.34
2023-05-05T09:20:22.969Z,98107.72
2023-05-05T09:23:40.921Z,98111.25
2023-05-05T09:27:23.358Z,98114.88
2023-05-05T09:35:40.273Z,98098.66
2023-05-05T09:46:58.190Z,98100.63
2023-05-05T09:53:45.054Z,98096.56
2023-05-05T09:57:40.729Z,98098.19
2023-05-05T10:01:39.781Z,98094.59
2023-05-05T10:05:26.999Z,98092.75
2023-05-05T10:09:16.786Z,98100.00
2023-05-05T10:12:42.126Z,98094.03
2023-05-05T10:16:13.414Z,98103.66
2023-05-05T10:28:15.316Z,98073.91
2023-05-05T10:31:58.676Z,98078.47
2023-05-05T10:35:48.430Z,98078.94
2023-05-05T10:39:34.726Z,98063.72
2023-05-05T10:42:56.412Z,98067.50
2023-05-05T10:46:40.342Z,98059.59
2023-05-05T11:00:13.446Z,98040.69
2023-05-05T11:03:46.268Z,98036.31
2023-05-05T11:07:54.716Z,98024.03
2023-05-05T11:15:45.367Z,98013.59
2023-05-05T11:19:49.518Z,98002.81
2023-05-05T11:23:31.335Z,97998.03
2023-05-05T11:26:52.826Z,97991.47
2023-05-05T11:30:36.027Z,97986.72
2023-05-05T11:38:47.042Z,97984.13
2023-05-05T11:42:56.459Z,97985.84
2023-05-05T11:47:16.988Z,97987.66
2023-05-05T11:54:05.617Z,97977.16
2023-05-05T11:57:24.505Z,97988.50
2023-05-05T12:00:48.918Z,98011.28
2023-05-05T12:03:58.397Z,98021.88
2023-05-05T12:08:18.506Z,98028.09
2023-05-05T12:12:04.943Z,98029.00
2023-05-05T12:15:41.905Z,98029.28
2023-05-05T12:19:19.085Z,98027.19
2023-05-05T12:22:35.747Z,98031.78
2023-05-05T12:25:57.484Z,98045.06
2023-05-05T12:29:07.046Z,98039.72
2023-05-05T12:32:37.317Z,98034.44
2023-05-05T12:35:51.266Z,98036.63
2023-05-05T12:38:54.402Z,98043.75
2023-05-05T12:46:13.836Z,97964.53
2023-05-05T12:49:29.277Z,98016.41
2023-05-05T12:52:57.677Z,98009.91
2023-05-05T12:56:37.701Z,98007.50
2023-05-05T12:59:42.198Z,98016.91
2023-05-05T13:03:31.409Z,98004.44
2023-05-05T13:11:15.834Z,98006.31
2023-05-05T13:21:40.538Z,98011.47
2023-05-05T13:24:54.521Z,98002.34
2023-05-05T13:28:18.369Z,97997.81
2023-05-05T13:35:34.037Z,98001.47
2023-05-05T13:38:56.017Z,97995.78
2023-05-05T13:45:49.508Z,97995.94
2023-05-05T13:49:09.038Z,97999.00
2023-05-05T13:55:50.905Z,97996.59
2023-05-05T13:59:41.462Z,97984.75
2023-05-05T14:02:50.536Z,97977.44
2023-05-05T14:06:10.318Z,97976.25
2023-05-05T14:13:31.048Z,97959.97
2023-05-05T14:25:25.975Z,97949.78
2023-05-05T14:34:22.942Z,97947.41
2023-05-05T14:38:31.708Z,97935.19
2023-05-05T14:42:02.522Z,97942.59
2023-05-05T14:48:56.462Z,97940.22
2023-05-05T14:56:34.946Z,97940.72
2023-05-05T15:04:58.523Z,97941.47
2023-05-05T15:11:49.891Z,97936.06
2023-05-05T15:15:19.953Z,97939.13
2023-05-05T15:26:25.563Z,97933.38
2023-05-05T15:30:01.172Z,97936.78
2023-05-05T15:44:54.289Z,97918.91
2023-05-05T15:59:29.790Z,97896.25
2023-05-05T16:03:32.557Z,97902.97
2023-05-05T16:06:53.886Z,97908.47
2023-05-05T16:15:43.888Z,97905.16
2023-05-05T16:19:14.614Z,97907.41
2023-05-05T16:22:20.937Z,97906.50
2023-05-05T16:29:08.960Z,97898.09
2023-05-05T16:32:48.296Z,97897.69
2023-05-05T16:36:03.185Z,97892.59
2023-05-05T16:39:19.436Z,97895.19
2023-05-05T16:42:48.226Z,97886.16
2023-05-05T16:46:38.462Z,97887.44
2023-05-05T16:50:31.953Z,97897.03
2023-05-05T16:54:04.842Z,97900.13
2023-05-05T16:57:41.132Z,97903.78
2023-05-05T17:00:51.673Z,97904.69
2023-05-05T17:04:07.933Z,97906.28
2023-05-05T17:07:52.170Z,97895.81
2023-05-05T17:11:04.328Z,97892.25
2023-05-05T17:14:15.083Z,97883.06
2023-05-05T17:17:33.196Z,97882.50
2023-05-05T17:20:45.938Z,97873.53
2023-05-05T17:23:51.621Z,97876.72
2023-05-05T17:32:38.822Z,97873.97
2023-05-05T17:35:55.236Z,97866.16
2023-05-05T17:39:32.100Z,97863.63
2023-05-05T17:42:51.843Z,97864.50
2023-05-05T17:46:29.688Z,97876.81
2023-05-05T17:49:32.834Z,97868.22
2023-05-05T17:52:50.929Z,97846.97
2023-05-05T18:04:56.737Z,97850.91
2023-05-05T18:12:08.785Z,97856.78
2023-05-05T18:16:32.515Z,97865.66
2023-05-05T18:20:28.145Z,97855.44
2023-05-05T18:24:20.644Z,97869.94
2023-05-05T18:28:47.968Z,97857.94
2023-05-05T18:36:09.375Z,97864.78
2023-05-05T18:40:01.638Z,97867.75
2023-05-05T18:43:08.235Z,97872.16
2023-05-05T18:46:54.227Z,97882.41
2023-05-05T18:49:58.804Z,97882.34
2023-05-05T18:53:40.505Z,97888.69
2023-05-05T18:57:15.285Z,97895.16
2023-05-05T19:00:59.754Z,97905.88
2023-05-05T19:04:30.064Z,97911.22
2023-05-05T19:12:22.988Z,97938.94
2023-05-05T19:16:33.070Z,97950.59
2023-05-05T19:20:13.130Z,97963.00
2023-05-05T19:23:58.720Z,98019.91
2023-05-05T19:33:01.947Z,98040.28
2023-05-05T19:36:08.278Z,98054.25
2023-05-05T19:39:15.709Z,98056.25
2023-05-05T19:44:05.333Z,98079.28
2023-05-05T19:48:14.400Z,98094.59
2023-05-05T19:56:33.035Z,98103.63
2023-05-05T20:07:00.667Z,98117.16
2023-05-05T20:10:24.116Z,98123.00
2023-05-05T20:13:38.158Z,98119.66
2023-05-05T20:17:20.160Z,98116.16
2023-05-05T20:28:50.905Z,98112.31
2023-05-05T20:32:20.844Z,98115.78
2023-05-05T20:36:33.533Z,98105.25
2023-05-05T20:40:28.228Z,98098.00
2023-05-05T20:48:25.584Z,98097.97
2023-05-05T20:51:49.195Z,98102.09
2023-05-05T20:55:26.092Z,98096.13
2023-05-05T20:58:59.758Z,98089.88
2023-05-05T21:02:20.723Z,98103.75
2023-05-05T21:05:43.354Z,98092.97
2023-05-05T21:09:37.956Z,98095.75
2023-05-05T21:13:05.951Z,98114.56
2023-05-05T21:17:14.064Z,98113.91
2023-05-05T21:21:32.579Z,98102.09
2023-05-05T21:24:55.041Z,98106.75
2023-05-05T21:28:17.003Z,98103.66
2023-05-05T21:35:24.617Z,98111.75
2023-05-05T21:38:50.908Z,98109.88
2023-05-05T21:42:16.969Z,98112.50
2023-05-05T21:46:05.623Z,98113.31
2023-05-05T21:49:28.161Z,98116.78
2023-05-05T21:52:35.934Z,98116.59
2023-05-05T21:56:24.470Z,98105.13
2023-05-05T22:03:29.340Z,98105.22
2023-05-05T22:06:46.585Z,98080.25
2023-05-05T22:10:00.252Z,98108.25
2023-05-05T22:13:58.154Z,98110.69
2023-05-05T22:17:04.183Z,98102.22
2023-05-05T22:20:14.615Z,98113.63
2023-05-05T22:31:47.796Z,98107.09
2023-05-05T22:35:12.502Z,98110.94
2023-05-05T22:38:41.228Z,98111.72
2023-05-05T22:42:18.246Z,98108.03
2023-05-05T22:45:27.269Z,98112.03
2023-05-05T22:49:00.319Z,98110.50
2023-05-05T22:52:37.046Z,98112.03
2023-05-05T22:59:49.495Z,98115.69
2023-05-05T23:02:55.491Z,98114.66
2023-05-05T23:06:01.585Z,98114.66
2023-05-05T23:09:33.870Z,98114.34
2023-05-05T23:17:03.815Z,98108.81
2023-05-05T23:20:36.061Z,98105.53
2023-05-05T23:24:43.703Z,98105.63
2023-05-05T23:27:53.588Z,98102.78
2023-05-05T23:30:59.596Z,98106.00
2023-05-05T23:34:26.596Z,98055.69
2023-05-05T23:37:38.368Z,98109.00
2023-05-05T23:40:44.376Z,98096.31
2023-05-05T23:44:19.752Z,98100.47
2023-05-05T23:48:10.869Z,98100.84
2023-05-05T23:51:23.700Z,98101.28
2023-05-05T23:54:56.396Z,98112.91
2023-05-05T23:58:08.698Z,98117.22
